No se requiere ningun cuidado especial respecto a la situación metereológica.   -   No hay avisos

Informes METAR

 

KSJC - San Jose, California, USA
Distancia de la estación: NE 14km
Actualización: 25/05/2020 08:53
Despejado
Despejado
 Viento de calm
Viento: Calma
Temperatura: 21°C
Rocío: 8°C
Humedad: 43%
Barómetro: 1012.9 hPa
Nubes: Despejado
Visibilidad: 16 km
2020/05/25 06:53 KSJC 250653Z 00000KT 10SM CLR 21/08 A2991 RMK AO2 SLP127 LAST T02060083
KNUQ - Moffett Nas/Mtn, California, USA
Distancia de la estación: N 14km
Actualización: 25/05/2020 09:35
Despejado
Despejado
 Viento de calm
Viento: Calma
Temperatura: 19°C
Rocío: 10°C
Humedad: 56%
Barómetro: 1012.5 hPa
Nubes: Despejado
Visibilidad: 16 km
2020/05/25 07:35 KNUQ 250735Z AUTO 00000KT 10SM CLR 19/10 A2990 RMK AO2
 
KPAO - Palo Alto, California, USA
Distancia de la estación: NNO 23km
Actualización: 25/05/2020 00:47
NOT Current
Despejado
Despejado
 Viento de NNO
Viento: NNO 22 km/h
Temperatura: 27°C
Rocío: 12°C
Humedad: 39%
Barómetro: 1012.9 hPa
Nubes: Despejado
Visibilidad: 16 km
2020/05/24 22:47 KPAO 242247Z 33012KT 10SM SKC 27/12 A2991 RMK LAST
KRHV - San Jose/Reid, California, USA
Distancia de la estación: ENE 19km
Actualización: 25/05/2020 06:47
NOT Current
Poco nuboso
Poco nuboso
 Viento de calm
Viento: Calma
Temperatura: 23°C
Rocío: 6°C
Humedad: 33%
Barómetro: 1013.5 hPa
Nubes: Poco nuboso
Visibilidad: 16 km
Detalles de las nubes: Poco nuboso 3048 m
2020/05/25 04:47 KRHV 250447Z 00000KT 10SM FEW100 23/06 A2993 RMK LAST
 
KOAK - Oakland, California, USA
Distancia de la estación: NNO 50km
Actualización: 25/05/2020 08:53
Poco nuboso
Poco nuboso
 Viento de ONO
Viento: ONO 7 km/h
Temperatura: 18°C
Rocío: 12°C
Humedad: 68%
Barómetro: 1013.2 hPa
Nubes: Poco nuboso
Visibilidad: 16 km
Detalles de las nubes: Poco nuboso 7620 m
2020/05/25 06:53 KOAK 250653Z 30004KT 10SM FEW250 18/12 A2992 RMK AO2 SLP130 T01780122
KSQL - San Carlos Airpo, California, USA
Distancia de la estación: NO 34km
Actualización: 25/05/2020 09:35
Despejado
Despejado
 Viento de calm
Viento: Calma
Temperatura: 19°C
Rocío: 14°C
Humedad: 73%
Barómetro: 1012.9 hPa
Nubes: Despejado
Visibilidad: 16 km
2020/05/25 07:35 KSQL 250735Z AUTO 00000KT 10SM CLR 19/14 A2991 RMK AO2
 
KSFO - San Francisco, California, USA
Distancia de la estación: NO 49km
Actualización: 25/05/2020 08:56
Poco nuboso
Poco nuboso
 Viento de O
Viento: O 13 km/h
Temperatura: 14°C
Rocío: 9°C
Humedad: 72%
Barómetro: 1012.9 hPa
Nubes: Poco nuboso
Visibilidad: 16 km
Detalles de las nubes: Poco nuboso 6096 m
2020/05/25 06:56 KSFO 250656Z 28007KT 10SM FEW200 14/09 A2991 RMK AO2 SLP127 T01440094
KE16 - San Martin, California, USA
Distancia de la estación: ESE 43km
Actualización: 25/05/2020 09:25
Despejado
Despejado
 Viento de calm
Viento: Calma
Temperatura: 17°C
Rocío: 9°C
Humedad: 59%
Barómetro: 1014.2 hPa
Nubes: Despejado
Visibilidad: 16 km
2020/05/25 07:25 KE16 250725Z AUTO 00000KT 10SM CLR 17/09 A2995 RMK AO2 PWINO PNO
 
KWVI - Watsonville, California, USA
Distancia de la estación: SSE 44km
Actualización: 25/05/2020 08:53
Despejado
Despejado
 Viento de calm
Viento: Calma
Temperatura: 13°C
Rocío: 11°C
Humedad: 88%
Barómetro: 1013.5 hPa
Nubes: Despejado
Visibilidad: 16 km
2020/05/25 06:53 KWVI 250653Z AUTO 00000KT 10SM CLR 13/11 A2993 RMK AO2 SLP135 T01280111
KHAF - Half Moon Bay, California, USA
Distancia de la estación: ONO 50km
Actualización: 25/05/2020 09:35
Poco nuboso
Poco nuboso
 Viento de calm
Viento: Calma
Temperatura: 10°C
Rocío: 8°C
Humedad: 88%
Barómetro: 1013.9 hPa
Nubes: Poco nuboso
Visibilidad: 11 km
Detalles de las nubes: Poco nuboso 91 m
2020/05/25 07:35 KHAF 250735Z AUTO 00000KT 7SM FEW003 10/08 A2994 RMK AO2
 
KHWD - Hayward, California, USA
Distancia de la estación: N 44km
Actualización: 25/05/2020 08:54
Despejado
Despejado
 Viento de calm
Viento: Calma
Temperatura: 18°C
Rocío: 13°C
Humedad: 73%
Barómetro: 1012.9 hPa
Nubes: Despejado
Visibilidad: 16 km
2020/05/25 06:54 KHWD 250654Z 00000KT 10SM CLR 18/13 A2991 RMK AO2 SLP136 T01830128
KLVK - Livermore, California, USA
Distancia de la estación: NNE 51km
Actualización: 25/05/2020 08:53
Despejado
Despejado
 Viento de calm
Viento: Calma
Temperatura: 18°C
Rocío: 4°C
Humedad: 40%
Barómetro: 1012.9 hPa
Nubes: Despejado
Visibilidad: 16 km
2020/05/25 06:53 KLVK 250653Z AUTO 00000KT 10SM CLR 18/04 A2991 RMK AO2 SLP124 T01780039